createdAt,value
2019-05-23T00:00:46.620Z,20.80
2019-05-23T00:03:48.812Z,19.48
2019-05-23T00:06:40.952Z,18.93
2019-05-23T00:09:30.932Z,18.60
2019-05-23T00:12:21.769Z,18.32
2019-05-23T00:15:01.441Z,17.77
2019-05-23T00:17:33.364Z,16.32
2019-05-23T00:20:06.616Z,15.60
2019-05-23T00:22:38.316Z,16.00
2019-05-23T00:25:11.320Z,14.85
2019-05-23T00:27:43.409Z,15.05
2019-05-23T00:30:17.114Z,16.05
2019-05-23T00:32:48.064Z,15.75
2019-05-23T00:35:19.916Z,15.48
2019-05-23T00:37:51.537Z,15.93
2019-05-23T00:40:23.449Z,16.75
2019-05-23T00:42:55.158Z,16.80
2019-05-23T00:45:27.252Z,16.52
2019-05-23T00:47:57.697Z,16.37
2019-05-23T00:50:30.579Z,17.48
2019-05-23T00:53:01.179Z,17.62
2019-05-23T00:55:31.790Z,16.00
2019-05-23T00:58:02.454Z,17.10
2019-05-23T01:00:33.305Z,16.77
2019-05-23T01:03:05.296Z,17.55
2019-05-23T01:05:37.578Z,18.62
2019-05-23T01:10:38.696Z,21.15
2019-05-23T01:13:11.089Z,24.75
2019-05-23T01:18:13.644Z,25.20
2019-05-23T01:20:48.354Z,26.27
2019-05-23T01:23:20.361Z,29.50
2019-05-23T01:25:51.320Z,31.68
2019-05-23T01:28:23.476Z,33.28
2019-05-23T01:33:25.841Z,31.57
2019-05-23T01:35:57.112Z,36.75
2019-05-23T01:38:28.638Z,36.30
2019-05-23T01:40:59.752Z,34.05
2019-05-23T01:43:32.488Z,33.35
2019-05-23T01:46:03.324Z,33.35
2019-05-23T01:48:34.134Z,34.65
2019-05-23T01:51:04.639Z,36.60
2019-05-23T01:53:37.065Z,37.88
2019-05-23T01:56:08.519Z,35.65
2019-05-23T01:58:40.200Z,32.20
2019-05-23T02:01:11.443Z,32.63
2019-05-23T02:03:42.216Z,35.78
2019-05-23T02:06:12.646Z,35.90
2019-05-23T02:08:45.183Z,34.73
2019-05-23T02:11:18.174Z,35.55
2019-05-23T02:13:49.605Z,34.40
2019-05-23T02:16:21.313Z,33.70
2019-05-23T02:18:53.302Z,35.00
2019-05-23T02:21:23.828Z,34.83
2019-05-23T02:23:54.747Z,33.15
2019-05-23T02:26:25.566Z,30.82
2019-05-23T02:28:56.299Z,30.30
2019-05-23T02:31:27.254Z,26.25
2019-05-23T02:33:58.416Z,24.30
2019-05-23T02:36:28.833Z,19.95
2019-05-23T02:39:01.142Z,18.57
2019-05-23T02:41:38.797Z,18.07
2019-05-23T02:44:11.386Z,17.15
2019-05-23T02:46:59.830Z,16.48
2019-05-23T02:49:32.825Z,16.37
2019-05-23T02:52:07.459Z,16.52
2019-05-23T02:54:37.986Z,16.30
2019-05-23T02:57:12.193Z,15.00
2019-05-23T02:59:49.553Z,15.65
2019-05-23T03:02:44.061Z,16.02
2019-05-23T03:05:17.341Z,15.75
2019-05-23T03:07:47.806Z,16.48
2019-05-23T03:10:20.519Z,15.93
2019-05-23T03:12:53.000Z,15.35
2019-05-23T03:15:27.626Z,16.05
2019-05-23T03:18:01.006Z,16.93
2019-05-23T03:20:31.371Z,17.20
2019-05-23T03:23:12.317Z,16.82
2019-05-23T03:25:45.635Z,15.65
2019-05-23T03:28:19.067Z,16.12
2019-05-23T03:31:25.061Z,16.37
2019-05-23T03:33:30.111Z,15.70
2019-05-23T03:36:02.307Z,15.85
2019-05-23T03:41:05.141Z,14.38
2019-05-23T03:46:11.118Z,14.43
2019-05-23T03:48:42.627Z,14.05
2019-05-23T03:51:13.688Z,14.68
2019-05-23T03:53:45.836Z,13.95
2019-05-23T03:56:16.214Z,15.85
2019-05-23T03:58:48.134Z,14.25
2019-05-23T04:01:20.941Z,13.90
2019-05-23T04:03:51.786Z,13.72
2019-05-23T04:06:22.822Z,13.95
2019-05-23T04:08:53.449Z,14.47
2019-05-23T04:11:24.071Z,13.38
2019-05-23T04:13:55.010Z,13.25
2019-05-23T04:16:30.265Z,13.65
2019-05-23T04:18:58.535Z,13.50
2019-05-23T04:21:29.595Z,13.08
2019-05-23T04:24:00.144Z,12.90
2019-05-23T04:26:30.611Z,14.05
2019-05-23T04:29:01.540Z,14.85
2019-05-23T04:31:32.359Z,14.30
2019-05-23T04:34:04.438Z,14.55
2019-05-23T04:36:34.876Z,14.33
2019-05-23T04:39:07.069Z,14.75
2019-05-23T04:41:40.884Z,13.48
2019-05-23T04:44:15.236Z,14.10
2019-05-23T04:46:45.958Z,14.30
2019-05-23T04:49:16.440Z,14.85
2019-05-23T04:51:47.681Z,14.53
2019-05-23T04:54:18.556Z,15.58
2019-05-23T04:56:50.158Z,14.93
2019-05-23T04:59:22.400Z,16.10
2019-05-23T05:01:54.966Z,16.77
2019-05-23T05:04:25.883Z,15.80
2019-05-23T05:06:56.741Z,16.02
2019-05-23T05:09:28.956Z,17.52
2019-05-23T05:12:00.522Z,17.62
2019-05-23T05:14:31.652Z,17.25
2019-05-23T05:17:02.230Z,18.05
2019-05-23T05:19:32.776Z,19.67
2019-05-23T05:22:03.249Z,21.55
2019-05-23T05:24:33.691Z,23.98
2019-05-23T05:27:06.060Z,23.92
2019-05-23T05:29:37.795Z,25.68
2019-05-23T05:32:08.257Z,27.93
2019-05-23T05:34:38.685Z,25.57
2019-05-23T05:37:09.197Z,25.77
2019-05-23T05:39:39.684Z,22.50
2019-05-23T05:42:11.812Z,22.37
2019-05-23T05:44:42.637Z,22.48
2019-05-23T05:47:14.315Z,23.00
2019-05-23T05:49:44.761Z,24.40
2019-05-23T05:52:16.336Z,22.42
2019-05-23T05:54:46.875Z,23.85
2019-05-23T05:57:17.353Z,22.60
2019-05-23T05:59:47.772Z,23.83
2019-05-23T06:02:19.992Z,23.73
2019-05-23T06:04:50.348Z,24.30
2019-05-23T06:07:32.080Z,23.70
2019-05-23T06:10:03.753Z,24.63
2019-05-23T06:12:34.201Z,26.10
2019-05-23T06:15:07.139Z,23.95
2019-05-23T06:17:37.788Z,22.50
2019-05-23T06:20:10.160Z,20.20
2019-05-23T06:22:42.423Z,19.23
2019-05-23T06:25:13.984Z,19.48
2019-05-23T06:27:46.210Z,21.42
2019-05-23T06:32:47.454Z,19.65
2019-05-23T06:35:17.817Z,18.27
2019-05-23T06:37:48.647Z,19.42
2019-05-23T06:40:19.313Z,19.02
2019-05-23T06:42:51.057Z,19.45
2019-05-23T06:45:24.168Z,19.48
2019-05-23T06:47:54.530Z,19.73
2019-05-23T06:50:26.442Z,20.60
2019-05-23T06:52:56.921Z,21.57
2019-05-23T06:55:27.882Z,19.37
2019-05-23T06:57:58.322Z,20.62
2019-05-23T07:00:30.422Z,20.68
2019-05-23T07:05:33.308Z,21.75
2019-05-23T07:08:06.037Z,22.17
2019-05-23T07:10:37.418Z,22.17
2019-05-23T07:13:07.848Z,23.80
2019-05-23T07:15:38.209Z,21.57
2019-05-23T07:18:09.720Z,22.22
2019-05-23T07:20:40.150Z,22.25
2019-05-23T07:23:12.685Z,22.70
2019-05-23T07:25:43.127Z,24.02
2019-05-23T07:28:13.512Z,20.60
2019-05-23T07:30:44.843Z,19.67
2019-05-23T07:33:15.388Z,18.90
2019-05-23T07:35:45.778Z,20.32
2019-05-23T07:38:16.773Z,19.42
2019-05-23T07:40:48.366Z,20.88
2019-05-23T07:43:19.292Z,20.55
2019-05-23T07:45:51.366Z,18.65
2019-05-23T07:48:21.799Z,19.23
2019-05-23T07:50:52.333Z,19.00
2019-05-23T07:53:32.328Z,19.10
2019-05-23T07:56:04.557Z,17.90
2019-05-23T07:58:36.189Z,18.17
2019-05-23T08:01:15.378Z,16.82
2019-05-23T08:03:49.107Z,16.48
2019-05-23T08:06:20.366Z,16.10
2019-05-23T08:08:52.291Z,16.12
2019-05-23T08:11:22.760Z,16.15
2019-05-23T08:13:54.690Z,14.73
2019-05-23T08:16:25.073Z,15.60
2019-05-23T08:18:55.499Z,15.78
2019-05-23T08:21:25.957Z,15.90
2019-05-23T08:23:56.841Z,16.80
2019-05-23T08:26:28.347Z,14.70
2019-05-23T08:29:24.250Z,14.35
2019-05-23T08:31:31.552Z,14.30
2019-05-23T08:34:03.135Z,16.07
2019-05-23T08:36:34.465Z,16.37
2019-05-23T08:39:09.132Z,17.20
2019-05-23T08:41:39.839Z,17.20
2019-05-23T08:44:11.685Z,15.72
2019-05-23T08:46:43.375Z,15.25
2019-05-23T08:49:16.138Z,16.35
2019-05-23T08:51:47.072Z,14.63
2019-05-23T08:54:17.473Z,12.33
2019-05-23T08:56:48.011Z,11.55
2019-05-23T08:59:18.988Z,13.32
2019-05-23T09:01:49.431Z,13.60
2019-05-23T09:04:21.034Z,11.78
2019-05-23T09:06:52.755Z,12.15
2019-05-23T09:09:29.763Z,12.23
2019-05-23T09:11:57.294Z,13.13
2019-05-23T09:14:27.645Z,11.53
2019-05-23T09:16:58.073Z,11.85
2019-05-23T09:19:28.448Z,9.60
2019-05-23T09:22:00.179Z,10.55
2019-05-23T09:24:30.538Z,10.40
2019-05-23T09:27:01.065Z,9.70
2019-05-23T09:29:31.425Z,10.68
2019-05-23T09:32:02.775Z,11.18
2019-05-23T09:34:33.554Z,11.77
2019-05-23T09:37:10.309Z,10.85
2019-05-23T09:39:42.501Z,10.08
2019-05-23T09:42:18.224Z,11.08
2019-05-23T09:44:50.017Z,12.70
2019-05-23T09:47:20.523Z,12.90
2019-05-23T09:49:54.832Z,13.90
2019-05-23T09:52:25.433Z,12.85
2019-05-23T09:54:56.077Z,12.00
2019-05-23T09:57:26.496Z,9.60
2019-05-23T09:59:57.186Z,10.38
2019-05-23T10:05:02.094Z,8.90
2019-05-23T10:07:32.498Z,9.85
2019-05-23T10:10:03.014Z,10.50
2019-05-23T10:12:34.778Z,11.70
2019-05-23T10:15:08.095Z,11.50
2019-05-23T10:17:38.453Z,11.80
2019-05-23T10:20:09.088Z,12.80
2019-05-23T10:22:39.445Z,13.15
2019-05-23T10:25:10.189Z,11.70
2019-05-23T10:27:40.557Z,10.75
2019-05-23T10:30:13.623Z,11.30
2019-05-23T10:32:44.038Z,10.58
2019-05-23T10:35:14.625Z,10.90
2019-05-23T10:37:45.061Z,11.05
2019-05-23T10:40:16.924Z,11.83
2019-05-23T10:42:48.212Z,11.65
2019-05-23T10:45:19.398Z,11.57
2019-05-23T10:47:52.692Z,10.10
2019-05-23T10:50:23.913Z,11.40
2019-05-23T10:52:54.467Z,10.53
2019-05-23T10:55:24.860Z,11.83
2019-05-23T10:57:55.244Z,12.18
2019-05-23T11:00:26.576Z,11.83
2019-05-23T11:02:57.109Z,11.40
2019-05-23T11:05:27.886Z,12.07
2019-05-23T11:07:59.706Z,14.83
2019-05-23T11:10:31.170Z,12.85
2019-05-23T11:13:01.712Z,13.28
2019-05-23T11:15:33.148Z,11.35
2019-05-23T11:18:04.524Z,12.80
2019-05-23T11:20:36.202Z,14.10
2019-05-23T11:23:07.115Z,12.55
2019-05-23T11:25:39.876Z,13.35
2019-05-23T11:28:10.244Z,13.98
2019-05-23T11:30:43.760Z,13.55
2019-05-23T11:33:15.024Z,15.50
2019-05-23T11:35:47.557Z,13.65
2019-05-23T11:38:18.039Z,12.53
2019-05-23T11:40:48.680Z,12.53
2019-05-23T11:43:19.053Z,13.50
2019-05-23T11:45:53.741Z,13.10
2019-05-23T11:48:24.772Z,13.03
2019-05-23T11:50:55.844Z,12.98
2019-05-23T11:53:27.075Z,12.78
2019-05-23T11:55:57.639Z,12.60
2019-05-23T11:58:32.127Z,12.00
2019-05-23T12:01:20.926Z,12.25
2019-05-23T12:03:50.745Z,10.90
2019-05-23T12:06:21.099Z,10.48
2019-05-23T12:08:51.637Z,11.12
2019-05-23T12:11:22.024Z,11.48
2019-05-23T12:13:52.534Z,10.88
2019-05-23T12:16:23.908Z,10.15
2019-05-23T12:18:54.835Z,10.30
2019-05-23T12:21:26.474Z,9.98
2019-05-23T12:23:56.981Z,11.57
2019-05-23T12:26:27.619Z,10.55
2019-05-23T12:28:58.786Z,10.23
2019-05-23T12:31:29.156Z,10.32
2019-05-23T12:33:59.684Z,10.43
2019-05-23T12:36:30.545Z,10.55
2019-05-23T12:39:00.909Z,10.10
2019-05-23T12:41:32.545Z,11.55
2019-05-23T12:44:03.015Z,10.30
2019-05-23T12:46:34.570Z,9.75
2019-05-23T12:49:13.204Z,10.30
2019-05-23T12:51:44.836Z,10.05
2019-05-23T12:54:15.603Z,9.30
2019-05-23T12:56:49.014Z,9.40
2019-05-23T12:59:18.894Z,9.58
2019-05-23T13:01:50.898Z,9.68
2019-05-23T13:04:22.044Z,9.63
2019-05-23T13:06:52.450Z,10.18
2019-05-23T13:09:23.023Z,9.85
2019-05-23T13:11:53.578Z,9.40
2019-05-23T13:14:24.634Z,7.87
2019-05-23T13:17:00.357Z,7.40
2019-05-23T13:19:28.398Z,7.80
2019-05-23T13:21:59.267Z,7.37
2019-05-23T13:24:50.606Z,8.33
2019-05-23T13:27:03.686Z,11.30
2019-05-23T13:29:34.073Z,9.68
2019-05-23T13:32:05.606Z,10.85
2019-05-23T13:34:36.680Z,11.73
2019-05-23T13:37:08.964Z,9.00
2019-05-23T13:39:39.328Z,10.10
2019-05-23T13:42:09.771Z,8.73
2019-05-23T13:44:41.925Z,9.05
2019-05-23T13:47:12.455Z,9.90
2019-05-23T13:49:42.979Z,10.08
2019-05-23T13:52:13.401Z,9.25
2019-05-23T13:54:43.762Z,9.03
2019-05-23T13:57:14.397Z,10.10
2019-05-23T13:59:44.877Z,10.75
2019-05-23T14:02:15.723Z,8.85
2019-05-23T14:04:46.089Z,10.32
2019-05-23T14:07:17.109Z,9.33
2019-05-23T14:09:47.572Z,8.98
2019-05-23T14:12:21.773Z,9.88
2019-05-23T14:17:33.246Z,9.10
2019-05-23T14:20:05.137Z,9.93
2019-05-23T14:22:37.185Z,9.10
2019-05-23T14:25:07.859Z,9.93
2019-05-23T14:27:45.928Z,9.85
2019-05-23T14:30:34.245Z,10.15
2019-05-23T14:33:10.038Z,26.12
2019-05-23T14:35:42.092Z,8.63
2019-05-23T14:38:29.681Z,7.90
2019-05-23T14:40:47.028Z,9.00
2019-05-23T14:43:19.114Z,9.15
2019-05-23T14:48:42.798Z,8.68
2019-05-23T14:51:16.482Z,8.15
2019-05-23T14:54:08.101Z,7.45
2019-05-23T14:56:41.058Z,7.97
2019-05-23T14:59:11.794Z,8.13
2019-05-23T15:01:42.255Z,7.75
2019-05-23T15:04:12.885Z,7.90
2019-05-23T15:06:43.245Z,7.20
2019-05-23T15:09:13.678Z,8.23
2019-05-23T15:11:44.136Z,7.78
2019-05-23T15:14:14.685Z,7.03
2019-05-23T15:16:45.457Z,7.05
2019-05-23T15:19:36.486Z,7.95
2019-05-23T15:21:47.875Z,7.85
2019-05-23T15:24:19.433Z,7.33
2019-05-23T15:26:50.200Z,7.58
2019-05-23T15:29:20.626Z,7.55
2019-05-23T15:32:01.594Z,7.22
2019-05-23T15:34:23.042Z,7.12
2019-05-23T15:36:53.502Z,7.10
2019-05-23T15:39:24.526Z,7.50
2019-05-23T15:41:54.976Z,6.75
2019-05-23T15:44:29.287Z,5.50
2019-05-23T15:46:57.473Z,6.00
2019-05-23T15:49:28.802Z,5.80
2019-05-23T15:52:00.848Z,6.20
2019-05-23T15:54:32.804Z,6.30
2019-05-23T15:57:22.801Z,5.47
2019-05-23T16:00:10.389Z,5.85
2019-05-23T16:02:42.332Z,5.83
2019-05-23T16:05:14.341Z,6.50
2019-05-23T16:07:45.335Z,5.95
2019-05-23T16:10:17.269Z,6.87
2019-05-23T16:12:47.908Z,6.83
2019-05-23T16:15:18.425Z,6.25
2019-05-23T16:17:49.446Z,5.75
2019-05-23T16:20:19.941Z,7.10
2019-05-23T16:22:50.296Z,6.20
2019-05-23T16:25:20.719Z,6.28
2019-05-23T16:27:51.822Z,5.90
2019-05-23T16:30:22.826Z,5.87
2019-05-23T16:32:53.192Z,5.28
2019-05-23T16:35:23.891Z,6.20
2019-05-23T16:37:54.340Z,6.67
2019-05-23T16:40:24.741Z,6.85
2019-05-23T16:42:55.124Z,6.40
2019-05-23T16:45:25.545Z,6.65
2019-05-23T16:47:55.945Z,6.53
2019-05-23T16:50:26.398Z,7.65
2019-05-23T16:52:56.924Z,7.47
2019-05-23T16:55:29.178Z,7.45
2019-05-23T17:00:32.194Z,6.67
2019-05-23T17:03:04.201Z,7.50
2019-05-23T17:05:53.016Z,7.35
2019-05-23T17:08:37.130Z,6.92
2019-05-23T17:11:29.758Z,6.87
2019-05-23T17:14:17.594Z,8.23
2019-05-23T17:16:49.540Z,7.33
2019-05-23T17:19:31.676Z,8.08
2019-05-23T17:22:07.225Z,7.60
2019-05-23T17:24:40.243Z,7.95
2019-05-23T17:27:22.064Z,7.95
2019-05-23T17:30:00.153Z,8.10
2019-05-23T17:32:33.293Z,8.23
2019-05-23T17:35:03.916Z,8.33
2019-05-23T17:37:35.913Z,6.62
2019-05-23T17:40:23.809Z,7.37
2019-05-23T17:42:39.862Z,7.30
2019-05-23T17:45:14.092Z,8.23
2019-05-23T17:47:43.767Z,8.85
2019-05-23T17:50:14.445Z,8.15
2019-05-23T17:52:44.883Z,9.55
2019-05-23T17:55:15.459Z,9.43
2019-05-23T17:57:45.875Z,9.10
2019-05-23T18:00:18.025Z,8.78
2019-05-23T18:02:48.749Z,8.78
2019-05-23T18:05:20.297Z,8.93
2019-05-23T18:07:50.828Z,9.33
2019-05-23T18:10:21.488Z,9.65
2019-05-23T18:12:52.105Z,8.60
2019-05-23T18:15:23.107Z,8.23
2019-05-23T18:17:53.540Z,8.38
2019-05-23T18:20:24.866Z,8.95
2019-05-23T18:22:55.221Z,9.10
2019-05-23T18:25:27.413Z,9.33
2019-05-23T18:30:32.701Z,10.03
2019-05-23T18:33:04.791Z,10.55
2019-05-23T18:35:35.813Z,10.95
2019-05-23T18:38:06.597Z,10.18
2019-05-23T18:40:37.720Z,10.93
2019-05-23T18:43:08.806Z,10.85
2019-05-23T18:45:41.812Z,11.35
2019-05-23T18:48:12.532Z,11.45
2019-05-23T18:50:43.753Z,11.75
2019-05-23T18:53:14.332Z,11.45
2019-05-23T18:55:45.441Z,11.25
2019-05-23T19:00:58.810Z,11.25
2019-05-23T19:03:30.476Z,11.38
2019-05-23T19:06:02.215Z,11.25
2019-05-23T19:08:32.690Z,11.65
2019-05-23T19:11:19.607Z,11.25
2019-05-23T19:13:36.388Z,12.63
2019-05-23T19:16:07.105Z,12.25
2019-05-23T19:18:38.184Z,13.05
2019-05-23T19:21:10.967Z,12.73
2019-05-23T19:23:42.453Z,13.00
2019-05-23T19:26:13.092Z,13.77
2019-05-23T19:28:45.884Z,14.13
2019-05-23T19:31:17.804Z,13.80
2019-05-23T19:33:48.184Z,14.78
2019-05-23T19:36:18.840Z,14.68
2019-05-23T19:38:49.648Z,14.58
2019-05-23T19:41:34.460Z,14.87
2019-05-23T19:46:21.918Z,13.75
2019-05-23T19:48:53.250Z,13.08
2019-05-23T19:51:23.646Z,14.15
2019-05-23T19:53:54.162Z,14.70
2019-05-23T19:56:25.024Z,13.78
2019-05-23T19:58:55.464Z,13.22
2019-05-23T20:01:31.561Z,14.25
2019-05-23T20:04:00.643Z,14.07
2019-05-23T20:06:31.428Z,13.38
2019-05-23T20:09:01.999Z,12.78
2019-05-23T20:11:34.196Z,12.95
2019-05-23T20:14:04.720Z,13.75
2019-05-23T20:16:35.593Z,13.88
2019-05-23T20:19:06.715Z,13.25
2019-05-23T20:21:37.083Z,12.75
2019-05-23T20:24:07.830Z,14.85
2019-05-23T20:26:38.199Z,13.13
2019-05-23T20:29:08.703Z,10.85
2019-05-23T20:31:39.231Z,10.60
2019-05-23T20:34:09.838Z,9.13
2019-05-23T20:36:40.270Z,9.85
2019-05-23T20:39:10.791Z,8.28
2019-05-23T20:41:41.427Z,7.85
2019-05-23T20:44:12.092Z,7.42
2019-05-23T20:46:42.614Z,7.12
2019-05-23T20:49:13.197Z,8.63
2019-05-23T20:51:44.796Z,8.53
2019-05-23T20:54:15.229Z,8.23
2019-05-23T20:56:45.645Z,7.65
2019-05-23T20:59:16.138Z,7.67
2019-05-23T21:01:46.680Z,7.53
2019-05-23T21:04:17.303Z,7.40
2019-05-23T21:06:47.789Z,7.60
2019-05-23T21:09:18.209Z,7.80
2019-05-23T21:11:48.647Z,8.50
2019-05-23T21:14:19.089Z,8.35
2019-05-23T21:16:49.481Z,11.30
2019-05-23T21:19:19.984Z,8.50
2019-05-23T21:21:50.425Z,8.05
2019-05-23T21:24:20.997Z,8.50
2019-05-23T21:26:51.412Z,8.58
2019-05-23T21:29:21.930Z,8.10
2019-05-23T21:31:52.413Z,8.60
2019-05-23T21:34:22.844Z,8.38
2019-05-23T21:36:53.223Z,8.55
2019-05-23T21:39:23.621Z,8.85
2019-05-23T21:41:54.626Z,8.40
2019-05-23T21:44:25.295Z,8.40
2019-05-23T21:46:55.752Z,8.08
2019-05-23T21:49:26.889Z,8.33
2019-05-23T21:51:57.268Z,8.58
2019-05-23T21:54:27.781Z,8.55
2019-05-23T21:56:59.407Z,8.33
2019-05-23T21:59:29.809Z,8.28
2019-05-23T22:02:14.093Z,9.10
2019-05-23T22:04:46.017Z,8.43
2019-05-23T22:07:16.451Z,8.53
2019-05-23T22:09:46.793Z,8.98
2019-05-23T22:12:17.701Z,8.70
2019-05-23T22:14:48.226Z,9.73
2019-05-23T22:17:20.204Z,9.03
2019-05-23T22:19:50.639Z,7.92
2019-05-23T22:22:21.087Z,8.10
2019-05-23T22:24:51.620Z,8.13
2019-05-23T22:27:22.814Z,8.58
2019-05-23T22:29:53.351Z,8.88
2019-05-23T22:32:25.440Z,8.28
2019-05-23T22:34:57.425Z,8.85
2019-05-23T22:37:27.835Z,9.65
2019-05-23T22:39:58.203Z,8.55
2019-05-23T22:42:28.807Z,9.60
2019-05-23T22:44:59.266Z,10.55
2019-05-23T22:47:30.393Z,11.25
2019-05-23T22:50:00.769Z,12.23
2019-05-23T22:52:32.490Z,12.98
2019-05-23T22:55:02.961Z,15.53
2019-05-23T22:57:33.387Z,18.05
2019-05-23T23:00:05.112Z,18.55
2019-05-23T23:02:35.535Z,18.55
2019-05-23T23:05:07.025Z,18.03
2019-05-23T23:07:37.476Z,17.32
2019-05-23T23:10:08.294Z,19.75
2019-05-23T23:12:38.731Z,18.77
2019-05-23T23:15:09.138Z,19.70
2019-05-23T23:17:39.590Z,20.35
2019-05-23T23:20:10.192Z,18.80
2019-05-23T23:22:40.569Z,19.75
2019-05-23T23:25:12.417Z,19.35
2019-05-23T23:27:42.784Z,19.67
2019-05-23T23:30:14.918Z,19.42
2019-05-23T23:32:45.322Z,19.80
2019-05-23T23:35:15.685Z,20.43
2019-05-23T23:37:46.097Z,20.65
2019-05-23T23:40:16.592Z,21.15
2019-05-23T23:42:47.112Z,20.20
2019-05-23T23:45:35.261Z,21.40
2019-05-23T23:48:23.428Z,20.68
2019-05-23T23:51:11.817Z,20.55
2019-05-23T23:54:00.122Z,19.67
2019-05-23T23:56:48.337Z,20.02
2019-05-23T23:59:18.190Z,19.60
